Time;durP1;ratioP1;P1;durP2;ratioP2;P2;SDS_P1;SDS_P2;PMS_P1;PMS_P2;Temp;Humidity;BMP_temperature;BMP_pressure;BME280_temperature;BME280_humidity;BME280_pressure;Samples;Min_cycle;Max_cycle;Signal;HPM_P1;HPM_P2
2022/12/26 00:01:46;;;;;;;1.70;1.17;;;11.90;98.20;;;;;;4974261;28;20516;-79
2022/12/26 00:04:14;;;;;;;1.60;1.10;;;11.90;98.20;;;;;;4983765;28;20552;-76
2022/12/26 00:06:40;;;;;;;1.60;1.10;;;11.80;98.20;;;;;;4976355;28;20489;-76
2022/12/26 00:09:07;;;;;;;1.60;1.07;;;11.80;98.20;;;;;;4990645;28;20461;-76
2022/12/26 00:11:36;;;;;;;1.70;1.30;;;11.80;98.20;;;;;;4981617;28;20481;-76
2022/12/26 00:14:06;;;;;;;1.60;1.10;;;11.80;98.20;;;;;;4990680;28;20468;-75
2022/12/26 00:16:34;;;;;;;1.60;1.10;;;11.70;98.20;;;;;;4977471;28;20476;-77
2022/12/26 00:19:02;;;;;;;1.60;1.10;;;11.70;98.20;;;;;;4990307;28;20844;-76
2022/12/26 00:21:29;;;;;;;1.60;1.10;;;11.70;98.20;;;;;;4978978;28;20852;-78
2022/12/26 00:23:58;;;;;;;1.60;1.10;;;11.70;98.20;;;;;;4990754;28;20513;-77
2022/12/26 00:26:27;;;;;;;1.60;1.13;;;11.70;98.20;;;;;;4979789;28;20485;-76
2022/12/26 00:28:55;;;;;;;1.60;1.10;;;11.70;98.20;;;;;;4990498;28;20475;-78
2022/12/26 00:31:23;;;;;;;1.60;1.10;;;11.70;98.20;;;;;;4983322;28;20485;-77
2022/12/26 00:33:50;;;;;;;1.60;1.13;;;11.60;98.20;;;;;;4996955;28;20463;-77
2022/12/26 00:36:19;;;;;;;1.60;1.07;;;11.70;98.20;;;;;;4977499;28;20473;-77
2022/12/26 00:38:46;;;;;;;1.70;1.10;;;11.60;98.20;;;;;;4997292;28;20475;-74
2022/12/26 00:41:15;;;;;;;1.60;1.10;;;11.60;98.20;;;;;;4978956;28;20485;-78
2022/12/26 00:43:42;;;;;;;1.60;1.10;;;11.60;98.20;;;;;;4999220;28;20857;-77
2022/12/26 00:46:10;;;;;;;1.63;1.10;;;11.60;98.20;;;;;;4973830;28;20497;-77
2022/12/26 00:48:37;;;;;;;1.60;1.10;;;11.60;98.20;;;;;;4991246;28;20887;-76
2022/12/26 00:51:04;;;;;;;1.60;1.10;;;11.60;98.20;;;;;;4971140;28;20485;-75
2022/12/26 00:53:31;;;;;;;1.60;1.10;;;11.60;98.20;;;;;;4993600;28;20552;-77
2022/12/26 00:55:58;;;;;;;1.70;1.20;;;11.60;98.20;;;;;;4975449;28;20469;-77
2022/12/26 00:58:25;;;;;;;1.60;1.10;;;11.60;98.20;;;;;;4995169;28;20481;-79
2022/12/26 01:00:52;;;;;;;1.60;1.10;;;11.60;98.20;;;;;;4978318;28;20496;-77
2022/12/26 01:03:21;;;;;;;1.60;1.10;;;11.60;98.20;;;;;;4994527;28;20820;-78
2022/12/26 01:05:49;;;;;;;1.63;1.10;;;11.60;98.20;;;;;;4976398;28;20470;-77
2022/12/26 01:08:17;;;;;;;1.60;1.10;;;11.60;98.20;;;;;;5002792;28;20476;-76
2022/12/26 01:10:44;;;;;;;1.70;1.30;;;11.60;98.20;;;;;;4992409;28;20526;-77
2022/12/26 01:13:11;;;;;;;1.63;1.10;;;11.60;98.20;;;;;;4986801;23;20846;-77
2022/12/26 01:15:38;;;;;;;1.60;1.10;;;11.60;98.20;;;;;;4987399;28;20456;-77
2022/12/26 01:18:06;;;;;;;1.60;1.10;;;11.60;98.20;;;;;;4983494;28;20480;-78
2022/12/26 01:20:34;;;;;;;1.60;1.10;;;11.60;98.20;;;;;;4984602;28;20485;-77
2022/12/26 01:23:00;;;;;;;1.77;1.43;;;11.60;98.20;;;;;;4976470;28;20489;-77
2022/12/26 01:25:27;;;;;;;1.60;1.07;;;11.60;98.20;;;;;;4967549;28;20553;-77
2022/12/26 01:27:54;;;;;;;1.63;1.20;;;11.60;98.20;;;;;;4966807;28;20489;-77
2022/12/26 01:30:21;;;;;;;1.63;1.10;;;11.60;98.20;;;;;;4967550;28;20462;-77
2022/12/26 01:32:47;;;;;;;1.80;1.20;;;11.60;98.20;;;;;;4968766;28;20493;-77
2022/12/26 01:35:14;;;;;;;1.63;1.10;;;11.60;98.20;;;;;;4966849;28;20544;-77
2022/12/26 01:37:42;;;;;;;1.60;1.10;;;11.60;98.20;;;;;;4971183;28;20485;-77
2022/12/26 01:40:12;;;;;;;1.60;1.10;;;11.60;98.20;;;;;;4969047;28;20490;-77
2022/12/26 01:42:41;;;;;;;1.60;1.00;;;11.60;98.20;;;;;;4970431;28;20500;-78
2022/12/26 01:45:21;;;;;;;1.63;1.20;;;11.60;98.20;;;;;;4965956;28;20461;-79
2022/12/26 01:47:52;;;;;;;1.60;1.10;;;11.60;98.20;;;;;;4969628;28;20485;-77
2022/12/26 01:50:35;;;;;;;1.60;1.10;;;11.70;98.20;;;;;;4969331;28;20458;-78
2022/12/26 01:53:09;;;;;;;1.60;1.10;;;11.70;98.20;;;;;;4970495;28;20969;-77
2022/12/26 01:55:38;;;;;;;1.60;1.10;;;11.70;98.20;;;;;;4969628;28;20470;-77
2022/12/26 01:58:09;;;;;;;1.63;1.20;;;11.80;98.20;;;;;;4971813;28;20494;-78
2022/12/26 02:00:38;;;;;;;1.60;1.10;;;11.80;98.20;;;;;;4969988;28;20494;-78
2022/12/26 02:05:52;;;;;;;1.63;1.10;;;11.80;98.20;;;;;;4961361;28;20448;-77
2022/12/26 02:08:23;;;;;;;1.67;1.20;;;11.80;98.20;;;;;;4985083;28;20540;-78
2022/12/26 02:10:53;;;;;;;1.60;1.10;;;11.80;98.20;;;;;;4960862;28;20462;-78
2022/12/26 02:13:21;;;;;;;1.70;1.20;;;11.90;98.20;;;;;;4979120;28;20486;-78
2022/12/26 02:15:48;;;;;;;1.60;1.10;;;11.80;98.20;;;;;;4960478;28;20458;-78
2022/12/26 02:18:15;;;;;;;1.60;1.10;;;11.80;98.20;;;;;;4987122;28;20469;-77
2022/12/26 02:20:49;;;;;;;1.63;1.10;;;11.80;98.20;;;;;;4971789;28;20566;-78
2022/12/26 02:24:16;;;;;;;1.60;1.10;;;11.80;98.20;;;;;;4971646;28;20489;-77
2022/12/26 02:27:27;;;;;;;1.70;1.27;;;11.80;98.20;;;;;;4966623;28;20492;-77
2022/12/26 02:30:33;;;;;;;1.60;1.10;;;11.70;98.20;;;;;;4958331;28;20480;-78
2022/12/26 02:33:26;;;;;;;1.60;1.10;;;11.70;98.20;;;;;;4974258;28;20989;-77
2022/12/26 02:36:17;;;;;;;1.60;1.10;;;11.70;98.20;;;;;;4962353;28;20458;-80
2022/12/26 02:38:55;;;;;;;2.93;2.27;;;11.70;98.20;;;;;;4979655;28;20473;-79
2022/12/26 02:41:26;;;;;;;1.60;1.10;;;11.60;98.20;;;;;;4954062;28;20838;-78
2022/12/26 02:47:01;;;;;;;1.63;1.10;;;11.60;98.20;;;;;;4971665;28;20720;-77
2022/12/26 02:47:02;;;;;;;1.60;1.10;;;11.50;98.20;;;;;;4961569;28;20489;-78
2022/12/26 03:13:09;;;;;;;1.60;1.10;;;11.60;98.20;;;;;;4976220;28;20500;-78
2022/12/26 03:15:16;;;;;;;1.60;1.10;;;11.50;98.20;;;;;;4958823;28;20446;-78
2022/12/26 03:17:45;;;;;;;1.60;1.10;;;11.50;98.20;;;;;;4974842;28;20491;-78
2022/12/26 03:20:16;;;;;;;1.60;1.10;;;11.40;98.20;;;;;;4967142;28;20473;-78
2022/12/26 03:22:47;;;;;;;1.60;1.10;;;11.40;98.20;;;;;;4975145;28;20504;-78
2022/12/26 03:28:21;;;;;;;1.60;1.10;;;11.40;98.20;;;;;;4974280;28;20508;-77
2022/12/26 03:30:49;;;;;;;1.63;1.20;;;11.40;98.20;;;;;;4964027;28;20895;-78
2022/12/26 03:36:01;;;;;;;1.60;1.10;;;11.40;98.20;;;;;;4961011;28;20447;-78
2022/12/26 03:38:36;;;;;;;1.63;1.10;;;11.40;98.20;;;;;;4981497;28;20462;-77
2022/12/26 04:41:34;;;;;;;1.60;1.10;;;11.20;98.20;;;;;;4958976;28;20480;-80
2022/12/26 04:46:23;;;;;;;1.60;1.10;;;11.00;98.20;;;;;;4961914;28;20476;-77
2022/12/26 04:51:37;;;;;;;1.60;1.10;;;11.00;98.20;;;;;;4963629;28;20547;-77
2022/12/26 04:54:04;;;;;;;1.63;1.17;;;11.00;98.20;;;;;;4977416;28;20478;-77
2022/12/26 04:56:31;;;;;;;1.63;1.20;;;11.00;98.20;;;;;;4965300;28;20481;-77
2022/12/26 04:58:58;;;;;;;1.60;1.10;;;11.00;98.20;;;;;;4976687;28;20466;-77
2022/12/26 05:09:43;;;;;;;1.60;1.20;;;11.00;98.20;;;;;;4968904;28;20489;-77
2022/12/26 05:12:10;;;;;;;1.70;1.20;;;11.00;98.20;;;;;;4977591;28;20472;-76
2022/12/26 05:14:37;;;;;;;1.60;1.10;;;11.00;98.20;;;;;;4977440;28;20470;-77
2022/12/26 05:30:59;;;;;;;1.63;1.10;;;11.00;98.20;;;;;;4962395;28;20941;-76
2022/12/26 05:36:12;;;;;;;1.60;1.10;;;11.00;98.20;;;;;;4967416;28;20490;-77
2022/12/26 05:38:39;;;;;;;1.60;1.10;;;10.90;98.20;;;;;;4980890;28;20991;-77
2022/12/26 05:41:06;;;;;;;1.67;1.20;;;10.90;98.20;;;;;;4967283;28;20491;-77
2022/12/26 05:43:33;;;;;;;1.67;1.10;;;11.00;98.20;;;;;;4986737;28;20486;-77
2022/12/26 05:46:00;;;;;;;1.70;1.20;;;11.00;98.20;;;;;;4966733;28;20472;-78
2022/12/26 05:48:28;;;;;;;1.60;1.20;;;11.00;98.20;;;;;;4986923;28;20465;-77
2022/12/26 05:50:58;;;;;;;1.60;1.20;;;11.00;98.20;;;;;;4969913;28;20872;-78
2022/12/26 05:53:25;;;;;;;1.60;1.10;;;11.00;98.20;;;;;;4988880;28;20492;-78
2022/12/26 05:55:52;;;;;;;1.60;1.10;;;11.00;98.20;;;;;;4967797;28;20462;-77
2022/12/26 05:58:19;;;;;;;1.70;1.20;;;11.00;98.20;;;;;;4991188;28;20465;-77
2022/12/26 06:00:47;;;;;;;1.60;1.10;;;11.00;98.20;;;;;;4978661;28;20465;-76
2022/12/26 06:03:14;;;;;;;1.60;1.10;;;11.00;98.20;;;;;;4965854;28;20481;-77
2022/12/26 06:05:42;;;;;;;1.60;1.10;;;11.00;98.20;;;;;;4977973;28;20920;-77
2022/12/26 06:08:09;;;;;;;1.63;1.20;;;10.90;98.20;;;;;;4972249;28;20477;-77
2022/12/26 06:10:36;;;;;;;1.60;1.10;;;10.90;98.20;;;;;;4973121;28;20848;-77
2022/12/26 06:13:02;;;;;;;1.60;1.10;;;10.90;98.20;;;;;;4982111;28;20480;-76
2022/12/26 06:15:29;;;;;;;1.60;1.20;;;10.90;98.20;;;;;;4972277;28;20465;-77
2022/12/26 06:17:56;;;;;;;1.60;1.20;;;10.90;98.20;;;;;;4980511;28;20480;-77
2022/12/26 06:20:23;;;;;;;1.60;1.10;;;10.90;98.20;;;;;;4978307;28;20461;-77
2022/12/26 06:22:51;;;;;;;1.60;1.20;;;10.90;98.20;;;;;;4981081;28;20508;-77
2022/12/26 06:25:18;;;;;;;1.63;1.17;;;10.90;98.20;;;;;;4978369;28;20465;-78
2022/12/26 06:27:45;;;;;;;1.60;1.10;;;10.80;98.20;;;;;;4980012;28;20489;-77
2022/12/26 06:30:12;;;;;;;1.60;1.10;;;10.90;98.20;;;;;;4980045;28;20828;-77
2022/12/26 06:32:39;;;;;;;1.60;1.20;;;10.90;98.20;;;;;;4983028;28;20493;-78
2022/12/26 06:35:06;;;;;;;1.60;1.10;;;10.90;98.20;;;;;;4978023;28;20468;-77
2022/12/26 06:37:33;;;;;;;1.60;1.10;;;10.80;98.20;;;;;;4971377;28;20492;-77
2022/12/26 06:40:01;;;;;;;1.60;1.20;;;10.80;98.20;;;;;;4975090;28;20461;-77
2022/12/26 06:42:28;;;;;;;1.60;1.10;;;10.80;98.20;;;;;;4973880;28;20896;-77
2022/12/26 06:44:55;;;;;;;1.60;1.10;;;10.80;98.20;;;;;;4970601;28;20472;-78
2022/12/26 06:47:22;;;;;;;1.60;1.10;;;10.80;98.20;;;;;;4974540;28;20495;-77
2022/12/26 06:49:48;;;;;;;1.67;1.20;;;10.80;98.20;;;;;;4982824;28;20473;-76
2022/12/26 06:52:15;;;;;;;1.67;1.27;;;10.80;98.20;;;;;;4980697;28;20511;-77
2022/12/26 06:54:42;;;;;;;1.67;1.20;;;10.80;98.20;;;;;;4985114;28;20457;-77
2022/12/26 06:57:10;;;;;;;1.70;1.10;;;10.80;98.20;;;;;;4979458;28;20535;-77
2022/12/26 06:59:37;;;;;;;1.60;1.10;;;10.80;98.20;;;;;;4984229;28;20466;-77
2022/12/26 07:02:04;;;;;;;1.60;1.10;;;10.80;98.20;;;;;;4981091;28;20922;-77
2022/12/26 07:04:30;;;;;;;1.60;1.10;;;10.80;98.20;;;;;;4981516;28;20474;-77
2022/12/26 07:06:57;;;;;;;1.60;1.10;;;10.80;98.20;;;;;;4975304;28;20496;-77
2022/12/26 07:09:27;;;;;;;1.60;1.10;;;10.80;98.20;;;;;;4974270;28;20462;-79
2022/12/26 07:11:55;;;;;;;1.60;1.10;;;10.80;98.20;;;;;;4977731;28;20725;-77
2022/12/26 07:14:23;;;;;;;1.70;1.30;;;10.80;98.20;;;;;;4986164;28;20572;-77
2022/12/26 07:16:49;;;;;;;1.60;1.10;;;10.80;98.20;;;;;;4978245;28;20484;-77
2022/12/26 07:19:16;;;;;;;1.60;1.10;;;10.80;98.20;;;;;;5019726;22;20464;-74
2022/12/26 07:21:43;;;;;;;1.60;1.20;;;10.80;98.20;;;;;;4988118;28;21026;-74
2022/12/26 07:24:15;;;;;;;1.60;1.20;;;10.80;98.20;;;;;;5006748;28;20467;-75
2022/12/26 07:26:42;;;;;;;1.70;1.30;;;10.80;98.20;;;;;;5002055;28;20519;-75
2022/12/26 07:29:10;;;;;;;1.67;1.20;;;10.80;98.20;;;;;;5008298;28;20462;-74
2022/12/26 07:31:39;;;;;;;1.63;1.17;;;10.80;98.20;;;;;;4978364;28;20886;-74
2022/12/26 07:34:06;;;;;;;1.70;1.20;;;10.70;98.20;;;;;;4998133;28;20467;-74
2022/12/26 07:36:32;;;;;;;1.67;1.20;;;10.70;98.20;;;;;;4980458;28;20932;-74
2022/12/26 07:38:59;;;;;;;1.67;1.20;;;10.70;98.20;;;;;;4983144;28;20457;-74
2022/12/26 07:44:10;;;;;;;1.67;1.10;;;10.70;98.20;;;;;;4991647;28;20537;-76
2022/12/26 07:46:38;;;;;;;1.60;1.10;;;10.70;98.20;;;;;;4982018;28;20480;-76
2022/12/26 07:49:05;;;;;;;1.70;1.27;;;10.70;98.20;;;;;;4997552;28;20465;-76
2022/12/26 07:51:32;;;;;;;1.67;1.20;;;10.60;98.20;;;;;;4973599;28;20845;-75
2022/12/26 07:53:59;;;;;;;1.67;1.20;;;10.60;98.20;;;;;;4988896;28;20465;-75
2022/12/26 07:56:26;;;;;;;1.63;1.20;;;10.60;98.20;;;;;;4979325;28;20484;-75
2022/12/26 07:58:52;;;;;;;1.63;1.10;;;10.50;98.20;;;;;;4995335;28;20472;-75
2022/12/26 08:01:19;;;;;;;1.67;1.20;;;10.50;98.20;;;;;;4980139;28;20543;-75
2022/12/26 08:03:50;;;;;;;1.70;1.20;;;10.50;98.20;;;;;;4996813;28;20461;-75
2022/12/26 08:06:17;;;;;;;1.70;1.20;;;10.50;98.20;;;;;;4979714;28;20578;-75
2022/12/26 08:08:44;;;;;;;1.60;1.10;;;10.50;98.20;;;;;;4996858;28;20642;-75
2022/12/26 08:11:15;;;;;;;1.60;1.10;;;10.40;98.20;;;;;;4980808;28;20484;-75
2022/12/26 08:13:41;;;;;;;1.60;1.10;;;10.40;98.20;;;;;;4996382;28;20469;-75
2022/12/26 08:16:10;;;;;;;1.60;1.20;;;10.40;98.20;;;;;;4974350;28;20473;-75
2022/12/26 08:18:37;;;;;;;1.60;1.20;;;10.40;98.20;;;;;;4989657;28;20540;-75
2022/12/26 08:21:05;;;;;;;1.60;1.10;;;10.40;98.20;;;;;;4975190;28;20826;-74
2022/12/26 08:23:33;;;;;;;1.70;1.20;;;10.40;98.20;;;;;;5000327;28;20489;-75
2022/12/26 08:26:03;;;;;;;1.60;1.10;;;10.40;98.20;;;;;;4975514;28;20593;-74
2022/12/26 08:28:30;;;;;;;1.60;1.20;;;10.40;98.20;;;;;;4991934;28;20475;-75
2022/12/26 08:30:57;;;;;;;1.67;1.30;;;10.50;98.20;;;;;;4976260;28;20484;-75
2022/12/26 08:33:24;;;;;;;1.60;1.10;;;10.50;98.20;;;;;;4997798;28;20460;-75
2022/12/26 08:35:50;;;;;;;1.70;1.20;;;10.50;98.20;;;;;;4974901;28;20985;-75
2022/12/26 08:38:18;;;;;;;1.60;1.20;;;10.50;98.20;;;;;;4996819;28;20466;-75
2022/12/26 08:40:52;;;;;;;1.60;1.10;;;10.50;98.20;;;;;;4987131;28;20852;-75
2022/12/26 08:43:19;;;;;;;1.60;1.10;;;10.50;98.20;;;;;;4976240;28;20481;-75
2022/12/26 08:45:45;;;;;;;1.60;1.10;;;10.50;98.20;;;;;;4986158;28;20930;-75
2022/12/26 08:48:14;;;;;;;1.60;1.20;;;10.50;98.20;;;;;;4990935;28;20472;-75
2022/12/26 08:50:40;;;;;;;1.60;1.20;;;10.50;98.20;;;;;;4985561;28;21057;-75
2022/12/26 08:53:07;;;;;;;1.60;1.10;;;10.50;98.20;;;;;;4988337;28;20472;-75
2022/12/26 08:55:35;;;;;;;1.60;1.10;;;10.50;98.20;;;;;;4980815;28;21021;-75
2022/12/26 08:58:02;;;;;;;1.60;1.17;;;10.50;98.20;;;;;;4990309;28;20487;-75
2022/12/26 09:00:29;;;;;;;1.63;1.10;;;10.50;98.20;;;;;;4982862;28;21043;-75
2022/12/26 09:02:56;;;;;;;1.63;1.20;;;10.50;98.20;;;;;;4988278;28;21131;-75
2022/12/26 09:05:22;;;;;;;1.60;1.10;;;10.50;98.20;;;;;;4985105;28;20476;-80
2022/12/26 09:07:49;;;;;;;1.63;1.20;;;10.60;98.20;;;;;;4990475;28;20499;-77
2022/12/26 09:10:16;;;;;;;1.63;1.10;;;10.60;98.20;;;;;;4984789;28;20477;-77
2022/12/26 09:12:44;;;;;;;1.63;1.20;;;10.60;98.20;;;;;;4988755;28;20495;-78
2022/12/26 09:15:11;;;;;;;1.60;1.10;;;10.70;98.20;;;;;;4985602;28;20461;-75
2022/12/26 09:17:38;;;;;;;1.63;1.13;;;10.70;98.20;;;;;;4987232;28;20497;-76
2022/12/26 09:20:06;;;;;;;1.60;1.10;;;10.70;98.20;;;;;;4982691;28;20870;-75
2022/12/26 09:22:51;;;;;;;1.60;1.20;;;10.80;98.20;;;;;;4983479;28;20481;-75
2022/12/26 09:25:18;;;;;;;1.60;1.10;;;10.80;98.20;;;;;;4984305;28;20468;-74
2022/12/26 09:27:46;;;;;;;1.70;1.20;;;10.80;98.20;;;;;;4989262;28;20480;-73
2022/12/26 09:30:14;;;;;;;1.60;1.20;;;10.80;98.20;;;;;;4980161;28;20485;-74
2022/12/26 09:32:41;;;;;;;1.60;1.10;;;10.90;98.20;;;;;;4990123;28;20781;-77
2022/12/26 09:35:09;;;;;;;1.67;1.23;;;10.90;98.20;;;;;;4985868;28;20504;-77
2022/12/26 09:37:35;;;;;;;1.60;1.10;;;10.90;98.20;;;;;;4988439;28;20566;-75
2022/12/26 09:40:06;;;;;;;1.60;1.10;;;10.90;98.20;;;;;;4986850;28;20557;-75
2022/12/26 09:42:43;;;;;;;1.67;1.10;;;11.00;98.20;;;;;;4987116;28;20479;-76
2022/12/26 09:45:15;;;;;;;1.70;1.20;;;11.00;98.20;;;;;;4983507;28;20467;-76
2022/12/26 09:47:51;;;;;;;1.60;1.10;;;11.00;98.20;;;;;;4975317;28;20608;-77
2022/12/26 09:50:26;;;;;;;1.70;1.20;;;11.00;98.20;;;;;;4983134;28;21075;-75
2022/12/26 09:52:56;;;;;;;1.63;1.10;;;11.10;98.20;;;;;;4987150;28;20931;-77
2022/12/26 09:55:37;;;;;;;1.63;1.10;;;11.10;98.20;;;;;;4985002;28;20468;-76
2022/12/26 09:58:12;;;;;;;1.67;1.20;;;11.10;98.20;;;;;;4981286;28;20485;-77
2022/12/26 10:00:47;;;;;;;1.60;1.10;;;11.20;98.20;;;;;;4982515;28;21038;-75
2022/12/26 10:03:13;;;;;;;1.60;1.10;;;11.20;98.20;;;;;;4971975;28;20499;-76
2022/12/26 10:05:48;;;;;;;1.63;1.20;;;11.30;98.20;;;;;;4983078;28;20497;-78
2022/12/26 10:08:25;;;;;;;1.63;1.20;;;11.30;98.20;;;;;;4981932;28;20913;-77
2022/12/26 10:11:00;;;;;;;1.60;1.10;;;11.30;98.20;;;;;;4972243;28;20547;-77
2022/12/26 10:13:34;;;;;;;1.70;1.17;;;11.40;98.20;;;;;;4975834;28;20465;-77
2022/12/26 10:16:08;;;;;;;1.60;1.10;;;11.40;98.20;;;;;;4980371;28;20463;-74
2022/12/26 10:18:46;;;;;;;1.60;1.10;;;11.40;98.20;;;;;;4999413;28;20568;-76
2022/12/26 10:21:29;;;;;;;1.63;1.13;;;11.40;98.20;;;;;;4983606;28;20490;-77
2022/12/26 10:23:58;;;;;;;1.63;1.20;;;11.50;98.20;;;;;;4994517;28;21101;-75
2022/12/26 10:26:30;;;;;;;1.60;1.10;;;11.50;98.20;;;;;;4982941;28;20934;-78
2022/12/26 10:29:02;;;;;;;1.70;1.20;;;11.50;98.20;;;;;;4995570;28;20461;-78
2022/12/26 10:31:36;;;;;;;1.60;1.00;;;11.50;98.20;;;;;;4975327;28;20492;-76
2022/12/26 10:34:10;;;;;;;1.60;1.10;;;11.50;98.20;;;;;;4979229;28;20555;-75
2022/12/26 10:36:42;;;;;;;1.60;1.00;;;11.50;98.20;;;;;;4981158;28;20896;-74
2022/12/26 10:39:16;;;;;;;1.60;1.10;;;11.50;98.20;;;;;;4988091;28;20461;-74
2022/12/26 10:41:49;;;;;;;1.60;1.10;;;11.50;98.20;;;;;;4984636;28;21107;-74
2022/12/26 10:44:16;;;;;;;1.63;1.10;;;11.50;98.20;;;;;;4994233;28;20489;-74
2022/12/26 10:47:10;;;;;;;1.60;1.13;;;11.50;98.20;;;;;;4981390;28;20484;-74
2022/12/26 10:49:37;;;;;;;1.60;1.10;;;11.60;98.20;;;;;;4984275;28;20485;-74
2022/12/26 10:52:04;;;;;;;1.60;1.00;;;11.60;98.20;;;;;;4985438;28;20485;-74
2022/12/26 10:54:32;;;;;;;1.60;1.00;;;11.60;98.20;;;;;;4990150;28;20464;-74
2022/12/26 10:57:00;;;;;;;1.60;1.07;;;11.60;98.20;;;;;;4981805;28;20566;-74
2022/12/26 10:59:38;;;;;;;1.63;1.10;;;11.60;98.20;;;;;;4988688;28;20572;-73
2022/12/26 11:02:23;;;;;;;1.67;1.10;;;11.60;98.20;;;;;;4967179;28;21094;-74
2022/12/26 11:05:02;;;;;;;1.60;1.07;;;11.60;98.20;;;;;;4983360;28;20520;-76
2022/12/26 11:07:33;;;;;;;1.63;1.10;;;11.50;98.20;;;;;;4986659;28;20487;-77
2022/12/26 11:10:00;;;;;;;1.60;1.10;;;11.50;98.20;;;;;;4987612;28;20708;-75
2022/12/26 11:12:37;;;;;;;1.60;1.10;;;11.50;98.20;;;;;;4991687;28;20498;-74
2022/12/26 11:15:07;;;;;;;1.60;1.10;;;11.50;98.20;;;;;;4990522;28;20469;-77
2022/12/26 11:17:42;;;;;;;1.60;1.10;;;11.50;98.20;;;;;;4995086;28;20484;-75
2022/12/26 11:20:22;;;;;;;1.70;1.30;;;11.50;98.20;;;;;;4987617;28;20516;-75
2022/12/26 11:22:50;;;;;;;4.13;1.73;;;11.50;98.20;;;;;;4980532;28;20502;-74
2022/12/26 11:25:21;;;;;;;1.60;1.10;;;11.50;98.20;;;;;;4988217;28;20555;-74
2022/12/26 11:27:49;;;;;;;1.67;1.10;;;11.50;98.20;;;;;;4989926;28;20476;-80
2022/12/26 11:30:26;;;;;;;1.60;1.10;;;11.50;98.20;;;;;;4988888;28;20505;-78
2022/12/26 11:33:12;;;;;;;1.60;1.10;;;11.50;98.20;;;;;;4990940;28;20488;-77
2022/12/26 11:35:48;;;;;;;1.60;1.00;;;11.50;98.20;;;;;;4991349;28;20500;-75
2022/12/26 11:38:33;;;;;;;1.60;1.10;;;11.50;98.20;;;;;;4977020;28;20484;-75
2022/12/26 11:43:47;;;;;;;1.60;1.10;;;11.60;98.20;;;;;;4995601;28;20559;-75
2022/12/26 11:46:15;;;;;;;1.60;1.00;;;11.60;98.20;;;;;;4979418;28;21062;-76
2022/12/26 11:48:48;;;;;;;1.60;1.10;;;11.70;98.20;;;;;;4991315;28;20504;-76
2022/12/26 11:51:15;;;;;;;1.63;1.10;;;11.70;98.20;;;;;;4980190;28;20567;-74
2022/12/26 11:53:42;;;;;;;1.60;1.10;;;11.80;98.20;;;;;;4997888;28;20468;-77
2022/12/26 11:56:10;;;;;;;1.67;1.20;;;11.80;98.20;;;;;;4975301;28;20583;-74
2022/12/26 11:58:37;;;;;;;1.60;1.00;;;11.80;98.20;;;;;;4994576;28;20476;-76
2022/12/26 12:01:13;;;;;;;1.60;1.03;;;11.80;98.20;;;;;;4979932;28;20476;-76
2022/12/26 12:03:43;;;;;;;1.60;1.03;;;11.90;98.20;;;;;;4990034;28;20492;-75
2022/12/26 12:06:34;;;;;;;1.60;1.10;;;12.00;98.20;;;;;;4980691;28;21016;-78
2022/12/26 12:09:13;;;;;;;1.60;1.00;;;12.00;98.20;;;;;;4993038;28;21118;-76
2022/12/26 12:11:47;;;;;;;1.60;1.10;;;12.00;98.20;;;;;;4969830;28;20493;-74
2022/12/26 12:14:32;;;;;;;1.60;1.07;;;12.00;98.20;;;;;;4983376;28;20464;-77
2022/12/26 12:17:07;;;;;;;1.60;1.10;;;12.00;98.20;;;;;;4977926;28;20480;-76
2022/12/26 12:20:02;;;;;;;1.60;1.10;;;12.00;98.20;;;;;;4984461;28;20571;-76
2022/12/26 12:22:46;;;;;;;1.60;1.00;;;12.00;98.20;;;;;;4985620;28;20571;-75
2022/12/26 12:25:31;;;;;;;1.70;1.20;;;12.10;98.20;;;;;;4981984;28;20461;-74
2022/12/26 12:28:06;;;;;;;1.60;1.10;;;12.20;98.20;;;;;;4987291;28;20491;-77
2022/12/26 12:30:38;;;;;;;1.60;1.00;;;12.30;98.20;;;;;;4983390;28;20476;-74
2022/12/26 12:33:23;;;;;;;1.60;1.10;;;12.30;98.20;;;;;;4988481;28;20478;-75
2022/12/26 12:36:02;;;;;;;1.60;1.00;;;12.30;98.20;;;;;;4974154;28;20465;-74
2022/12/26 12:38:33;;;;;;;1.60;1.00;;;12.20;98.20;;;;;;4995617;28;20958;-76
2022/12/26 12:41:33;;;;;;;1.60;1.10;;;12.20;98.20;;;;;;4975706;28;21044;-76
2022/12/26 12:44:07;;;;;;;1.60;1.10;;;12.10;98.20;;;;;;4987332;28;20486;-74
2022/12/26 12:46:44;;;;;;;1.67;1.10;;;11.90;98.20;;;;;;4976877;28;20656;-75
2022/12/26 12:49:29;;;;;;;1.63;1.10;;;11.80;98.20;;;;;;4988752;28;20991;-75
2022/12/26 12:52:08;;;;;;;1.60;1.10;;;11.70;98.20;;;;;;4980975;28;21024;-77
2022/12/26 12:55:22;;;;;;;1.60;1.03;;;11.60;98.20;;;;;;4982889;28;20467;-77
2022/12/26 12:57:55;;;;;;;1.60;1.10;;;11.50;98.20;;;;;;4963052;28;20484;-78
2022/12/26 13:00:26;;;;;;;1.60;1.10;;;11.40;98.20;;;;;;4983909;28;20477;-74
2022/12/26 13:02:58;;;;;;;1.60;1.10;;;11.30;98.20;;;;;;4991872;28;20485;-76
2022/12/26 13:05:42;;;;;;;1.60;1.10;;;11.20;98.20;;;;;;4982682;28;20457;-78
2022/12/26 13:08:17;;;;;;;1.63;1.10;;;11.10;98.20;;;;;;4989722;28;20481;-77
2022/12/26 13:10:50;;;;;;;1.60;1.10;;;11.10;98.20;;;;;;4984694;28;20476;-80
2022/12/26 13:13:26;;;;;;;1.60;1.10;;;11.00;98.20;;;;;;4980525;28;20477;-77
2022/12/26 13:15:57;;;;;;;1.60;1.10;;;10.90;98.20;;;;;;4981638;28;20519;-78
2022/12/26 13:18:31;;;;;;;1.60;1.10;;;10.70;98.20;;;;;;4999707;28;20465;-77
2022/12/26 13:21:03;;;;;;;1.60;1.10;;;10.60;98.20;;;;;;4975678;28;20657;-79
2022/12/26 13:26:25;;;;;;;1.60;1.10;;;10.40;98.20;;;;;;4978139;28;20870;-78
2022/12/26 13:28:58;;;;;;;1.60;1.10;;;10.40;98.20;;;;;;4991113;28;20468;-77
2022/12/26 13:31:25;;;;;;;1.60;1.10;;;10.30;98.20;;;;;;4977117;28;20484;-77
2022/12/26 13:33:52;;;;;;;1.70;1.20;;;10.30;98.20;;;;;;4983782;28;20464;-78
2022/12/26 13:36:44;;;;;;;1.63;1.20;;;10.30;98.20;;;;;;4976252;28;20793;-76
2022/12/26 13:39:36;;;;;;;1.60;1.20;;;10.30;98.20;;;;;;4986013;28;20461;-78
2022/12/26 13:45:48;;;;;;;1.60;1.20;;;10.30;98.20;;;;;;4982924;28;20532;-76
2022/12/26 13:49:01;;;;;;;1.60;1.10;;;10.30;98.20;;;;;;4975742;28;20477;-76
2022/12/26 13:51:52;;;;;;;1.60;1.10;;;10.30;98.20;;;;;;4983501;28;20892;-78
2022/12/26 13:54:22;;;;;;;1.60;1.17;;;10.30;98.20;;;;;;4994129;28;20457;-78
2022/12/26 13:57:30;;;;;;;1.60;1.13;;;10.30;98.20;;;;;;4979951;28;20670;-77
2022/12/26 14:00:16;;;;;;;1.60;1.10;;;10.30;98.20;;;;;;4986293;28;20481;-81
2022/12/26 14:03:06;;;;;;;1.60;1.10;;;10.20;98.20;;;;;;4995196;28;20491;-78
2022/12/26 14:05:37;;;;;;;1.70;1.20;;;10.20;98.20;;;;;;4985123;28;20461;-78
2022/12/26 14:08:13;;;;;;;1.60;1.10;;;10.20;98.20;;;;;;4992076;28;20488;-77
2022/12/26 14:10:52;;;;;;;1.60;1.10;;;10.20;98.20;;;;;;4985724;28;20575;-77
2022/12/26 14:13:42;;;;;;;1.63;1.10;;;10.10;98.20;;;;;;4975966;28;21245;-78
2022/12/26 14:16:18;;;;;;;1.63;1.20;;;10.10;98.20;;;;;;4979823;28;20482;-76
2022/12/26 14:18:53;;;;;;;1.63;1.20;;;10.10;98.20;;;;;;4998535;28;21253;-75
2022/12/26 14:21:37;;;;;;;1.60;1.10;;;10.00;98.20;;;;;;4983215;28;20493;-77
2022/12/26 14:24:17;;;;;;;1.70;1.23;;;10.00;98.20;;;;;;4991547;28;20490;-76
2022/12/26 14:26:51;;;;;;;1.60;1.10;;;10.00;98.20;;;;;;4983446;28;20491;-78
2022/12/26 14:29:24;;;;;;;1.60;1.10;;;9.90;98.20;;;;;;4991927;28;20475;-79
2022/12/26 14:32:12;;;;;;;1.67;1.20;;;9.90;98.20;;;;;;4987409;28;20499;-77
2022/12/26 14:34:50;;;;;;;1.60;1.10;;;9.90;98.20;;;;;;4987127;28;21025;-75
2022/12/26 14:37:23;;;;;;;2.50;2.30;;;9.80;98.20;;;;;;4987643;28;21015;-74
2022/12/26 14:40:14;;;;;;;1.70;1.20;;;9.80;98.20;;;;;;4988932;28;20520;-77
2022/12/26 14:43:09;;;;;;;1.63;1.20;;;9.70;98.20;;;;;;4986022;28;20480;-78
2022/12/26 14:45:49;;;;;;;1.67;1.20;;;9.60;98.20;;;;;;4982509;28;21028;-74
2022/12/26 14:48:45;;;;;;;1.70;1.37;;;9.60;98.20;;;;;;4973721;28;20487;-75
2022/12/26 14:51:39;;;;;;;1.70;1.30;;;9.50;98.20;;;;;;4963658;28;20491;-74
2022/12/26 14:54:38;;;;;;;1.70;1.20;;;9.50;98.20;;;;;;4993518;28;20850;-77
2022/12/26 14:57:40;;;;;;;1.67;1.20;;;9.50;98.20;;;;;;4987826;28;20505;-77
2022/12/26 15:00:32;;;;;;;1.60;1.20;;;9.40;98.20;;;;;;4984073;28;20486;-74
2022/12/26 15:03:35;;;;;;;1.60;1.20;;;9.40;98.20;;;;;;4981036;28;20477;-74
2022/12/26 15:06:34;;;;;;;1.60;1.10;;;9.40;98.20;;;;;;4977798;28;20843;-76
2022/12/26 15:09:33;;;;;;;1.63;1.20;;;9.30;98.20;;;;;;4988161;28;20471;-76
2022/12/26 15:12:18;;;;;;;1.60;1.10;;;9.30;98.20;;;;;;4985204;28;20506;-77
2022/12/26 15:15:31;;;;;;;1.60;1.20;;;9.20;98.20;;;;;;4990717;28;20457;-75
2022/12/26 15:18:23;;;;;;;1.67;1.23;;;9.20;98.20;;;;;;4876179;29;20481;-76
2022/12/26 15:21:16;;;;;;;1.60;1.13;;;9.20;98.20;;;;;;4975167;28;20496;-77
2022/12/26 15:24:10;;;;;;;1.60;1.20;;;9.20;98.20;;;;;;4989768;28;20565;-75
2022/12/26 15:27:01;;;;;;;1.60;1.20;;;9.20;98.20;;;;;;4982050;28;20487;-77
2022/12/26 15:29:56;;;;;;;1.63;1.20;;;9.20;98.20;;;;;;4988149;28;20457;-77
2022/12/26 15:32:33;;;;;;;1.63;1.20;;;9.10;98.20;;;;;;4979643;28;20583;-75
2022/12/26 15:35:22;;;;;;;1.60;1.20;;;9.10;98.20;;;;;;4984237;28;20449;-76